sensor_id;sensor_type;location;lat;lon;timestamp;pressure;altitude;pressure_sealevel;temperature;humidity
1472;BME280;963;42.644;23.336;2023-02-28T00:00:26;94620.59;;;8.22;89.64
1472;BME280;963;42.644;23.336;2023-02-28T00:02:52;94636.53;;;8.05;90.63
1472;BME280;963;42.644;23.336;2023-02-28T00:05:20;94614.78;;;7.43;94.48
1472;BME280;963;42.644;23.336;2023-02-28T00:07:47;94616.66;;;7.67;95.00
1472;BME280;963;42.644;23.336;2023-02-28T00:10:16;94614.06;;;8.04;93.40
1472;BME280;963;42.644;23.336;2023-02-28T00:12:46;94616.19;;;7.53;93.37
1472;BME280;963;42.644;23.336;2023-02-28T00:15:12;94627.00;;;7.51;98.19
1472;BME280;963;42.644;23.336;2023-02-28T00:17:37;94625.81;;;7.73;95.75
1472;BME280;963;42.644;23.336;2023-02-28T00:20:04;94629.41;;;7.69;95.20
1472;BME280;963;42.644;23.336;2023-02-28T00:22:31;94622.03;;;7.83;93.37
1472;BME280;963;42.644;23.336;2023-02-28T00:24:56;94641.31;;;7.66;94.62
1472;BME280;963;42.644;23.336;2023-02-28T00:27:22;94642.59;;;7.60;97.31
1472;BME280;963;42.644;23.336;2023-02-28T00:29:47;94627.59;;;7.81;94.82
1472;BME280;963;42.644;23.336;2023-02-28T00:32:14;94624.41;;;7.76;94.97
1472;BME280;963;42.644;23.336;2023-02-28T00:34:39;94628.34;;;7.94;93.66
1472;BME280;963;42.644;23.336;2023-02-28T00:37:06;94640.78;;;8.09;92.03
1472;BME280;963;42.644;23.336;2023-02-28T00:39:34;94633.25;;;7.96;93.00
1472;BME280;963;42.644;23.336;2023-02-28T00:41:59;94626.94;;;8.09;91.25
1472;BME280;963;42.644;23.336;2023-02-28T00:44:25;94606.75;;;8.22;90.39
1472;BME280;963;42.644;23.336;2023-02-28T00:46:50;94610.22;;;8.38;89.36
1472;BME280;963;42.644;23.336;2023-02-28T00:49:17;94625.41;;;8.57;88.63
1472;BME280;963;42.644;23.336;2023-02-28T00:51:42;94621.22;;;8.68;87.78
1472;BME280;963;42.644;23.336;2023-02-28T00:54:08;94604.81;;;8.71;87.20
1472;BME280;963;42.644;23.336;2023-02-28T00:56:33;94625.56;;;8.76;86.92
1472;BME280;963;42.644;23.336;2023-02-28T00:58:59;94617.63;;;8.88;86.08
1472;BME280;963;42.644;23.336;2023-02-28T01:01:24;94620.69;;;8.90;85.50
1472;BME280;963;42.644;23.336;2023-02-28T01:03:49;94619.94;;;8.90;85.42
1472;BME280;963;42.644;23.336;2023-02-28T01:06:15;94615.22;;;8.95;85.21
1472;BME280;963;42.644;23.336;2023-02-28T01:08:40;94632.41;;;8.93;85.02
1472;BME280;963;42.644;23.336;2023-02-28T01:11:11;94610.41;;;8.97;84.63
1472;BME280;963;42.644;23.336;2023-02-28T01:13:36;94596.50;;;8.69;85.28
1472;BME280;963;42.644;23.336;2023-02-28T01:16:02;94612.72;;;8.87;84.78
1472;BME280;963;42.644;23.336;2023-02-28T01:18:28;94613.63;;;8.78;84.91
1472;BME280;963;42.644;23.336;2023-02-28T01:20:54;94614.41;;;8.79;85.00
1472;BME280;963;42.644;23.336;2023-02-28T01:23:21;94594.09;;;8.76;85.03
1472;BME280;963;42.644;23.336;2023-02-28T01:25:48;94658.31;;;8.82;84.15
1472;BME280;963;42.644;23.336;2023-02-28T01:28:14;94618.53;;;8.80;84.33
1472;BME280;963;42.644;23.336;2023-02-28T01:30:39;94614.41;;;8.79;84.93
1472;BME280;963;42.644;23.336;2023-02-28T01:33:04;94612.63;;;8.83;84.91
1472;BME280;963;42.644;23.336;2023-02-28T01:35:34;94606.81;;;8.90;84.25
1472;BME280;963;42.644;23.336;2023-02-28T01:38:00;94595.56;;;8.89;84.20
1472;BME280;963;42.644;23.336;2023-02-28T01:40:25;94620.47;;;8.95;83.63
1472;BME280;963;42.644;23.336;2023-02-28T01:42:51;94611.59;;;9.00;83.12
1472;BME280;963;42.644;23.336;2023-02-28T01:47:50;94598.81;;;8.98;83.04
1472;BME280;963;42.644;23.336;2023-02-28T01:50:20;94615.84;;;9.04;83.12
1472;BME280;963;42.644;23.336;2023-02-28T01:52:48;94630.91;;;9.07;82.75
1472;BME280;963;42.644;23.336;2023-02-28T01:55:15;94633.97;;;9.09;82.57
1472;BME280;963;42.644;23.336;2023-02-28T01:57:48;94618.03;;;9.02;82.67
1472;BME280;963;42.644;23.336;2023-02-28T02:00:18;94629.72;;;9.05;82.72
1472;BME280;963;42.644;23.336;2023-02-28T02:02:47;94613.72;;;8.94;83.60
1472;BME280;963;42.644;23.336;2023-02-28T02:05:22;94617.63;;;9.00;83.01
1472;BME280;963;42.644;23.336;2023-02-28T02:07:52;94617.78;;;9.07;82.37
1472;BME280;963;42.644;23.336;2023-02-28T02:10:22;94612.03;;;9.02;82.57
1472;BME280;963;42.644;23.336;2023-02-28T02:15:36;94617.97;;;9.15;82.19
1472;BME280;963;42.644;23.336;2023-02-28T02:18:32;94609.69;;;9.13;81.86
1472;BME280;963;42.644;23.336;2023-02-28T02:23:51;94633.34;;;9.00;82.60
1472;BME280;963;42.644;23.336;2023-02-28T02:34:44;94616.69;;;8.81;83.28
1472;BME280;963;42.644;23.336;2023-02-28T02:42:41;94608.53;;;8.70;84.33
1472;BME280;963;42.644;23.336;2023-02-28T02:47:40;94637.59;;;8.65;84.74
1472;BME280;963;42.644;23.336;2023-02-28T02:50:13;94614.78;;;8.65;84.35
1472;BME280;963;42.644;23.336;2023-02-28T02:52:48;94619.69;;;8.67;84.50
1472;BME280;963;42.644;23.336;2023-02-28T02:55:15;94626.56;;;8.71;84.43
1472;BME280;963;42.644;23.336;2023-02-28T02:57:52;94622.59;;;8.77;84.69
1472;BME280;963;42.644;23.336;2023-02-28T03:00:23;94615.50;;;8.78;84.23
1472;BME280;963;42.644;23.336;2023-02-28T03:02:52;94630.56;;;8.81;84.15
1472;BME280;963;42.644;23.336;2023-02-28T03:05:31;94645.88;;;8.79;83.76
1472;BME280;963;42.644;23.336;2023-02-28T03:07:58;94650.00;;;8.80;84.12
1472;BME280;963;42.644;23.336;2023-02-28T03:10:38;94666.69;;;8.60;85.48
1472;BME280;963;42.644;23.336;2023-02-28T03:15:50;94675.84;;;8.66;84.70
1472;BME280;963;42.644;23.336;2023-02-28T03:21:36;94658.91;;;8.51;85.65
1472;BME280;963;42.644;23.336;2023-02-28T03:24:09;94675.31;;;8.48;86.09
1472;BME280;963;42.644;23.336;2023-02-28T03:26:41;94667.53;;;8.52;86.47
1472;BME280;963;42.644;23.336;2023-02-28T03:29:26;94667.97;;;8.54;86.08
1472;BME280;963;42.644;23.336;2023-02-28T03:32:02;94678.91;;;8.43;86.33
1472;BME280;963;42.644;23.336;2023-02-28T03:34:33;94668.75;;;8.42;87.44
1472;BME280;963;42.644;23.336;2023-02-28T03:37:03;94654.66;;;8.22;88.70
1472;BME280;963;42.644;23.336;2023-02-28T03:39:37;94672.56;;;7.96;90.33
1472;BME280;963;42.644;23.336;2023-02-28T03:42:09;94687.88;;;8.42;87.90
1472;BME280;963;42.644;23.336;2023-02-28T03:44:43;94688.63;;;8.43;86.97
1472;BME280;963;42.644;23.336;2023-02-28T03:50:00;94702.47;;;8.07;89.80
1472;BME280;963;42.644;23.336;2023-02-28T03:52:31;94679.31;;;7.97;90.72
1472;BME280;963;42.644;23.336;2023-02-28T03:55:03;94686.19;;;7.89;92.96
1472;BME280;963;42.644;23.336;2023-02-28T03:57:34;94680.19;;;7.89;91.66
1472;BME280;963;42.644;23.336;2023-02-28T04:00:11;94685.53;;;7.92;91.30
1472;BME280;963;42.644;23.336;2023-02-28T04:02:37;94682.69;;;7.85;91.16
1472;BME280;963;42.644;23.336;2023-02-28T04:05:03;94684.56;;;8.09;90.53
1472;BME280;963;42.644;23.336;2023-02-28T04:07:32;94689.25;;;8.03;90.50
1472;BME280;963;42.644;23.336;2023-02-28T04:09:57;94697.97;;;7.95;90.16
1472;BME280;963;42.644;23.336;2023-02-28T04:12:23;94692.19;;;8.02;89.64
1472;BME280;963;42.644;23.336;2023-02-28T04:14:49;94679.09;;;8.02;89.63
1472;BME280;963;42.644;23.336;2023-02-28T04:17:15;94694.03;;;7.89;89.75
1472;BME280;963;42.644;23.336;2023-02-28T04:19:41;94678.50;;;7.27;92.75
1472;BME280;963;42.644;23.336;2023-02-28T04:22:08;94690.19;;;7.08;95.76
1472;BME280;963;42.644;23.336;2023-02-28T04:24:33;94678.34;;;7.44;92.89
1472;BME280;963;42.644;23.336;2023-02-28T04:26:59;94677.03;;;7.50;92.70
1472;BME280;963;42.644;23.336;2023-02-28T04:29:27;94687.06;;;7.48;93.28
1472;BME280;963;42.644;23.336;2023-02-28T04:31:54;94689.25;;;7.46;94.03
1472;BME280;963;42.644;23.336;2023-02-28T04:34:23;94699.97;;;7.53;93.13
1472;BME280;963;42.644;23.336;2023-02-28T04:36:49;94687.13;;;7.72;91.26
1472;BME280;963;42.644;23.336;2023-02-28T04:39:16;94688.59;;;7.82;89.15
1472;BME280;963;42.644;23.336;2023-02-28T04:41:44;94703.75;;;7.89;88.93
1472;BME280;963;42.644;23.336;2023-02-28T04:44:09;94696.00;;;7.92;88.84
1472;BME280;963;42.644;23.336;2023-02-28T04:46:35;94712.72;;;7.55;93.03
1472;BME280;963;42.644;23.336;2023-02-28T04:49:00;94711.94;;;7.87;91.31
1472;BME280;963;42.644;23.336;2023-02-28T04:51:25;94722.09;;;8.01;88.87
1472;BME280;963;42.644;23.336;2023-02-28T04:53:52;94723.41;;;7.95;89.24
1472;BME280;963;42.644;23.336;2023-02-28T04:56:18;94706.28;;;7.97;88.81
1472;BME280;963;42.644;23.336;2023-02-28T04:58:44;94705.06;;;7.82;88.46
1472;BME280;963;42.644;23.336;2023-02-28T05:01:30;94711.38;;;7.81;87.67
1472;BME280;963;42.644;23.336;2023-02-28T05:03:57;94713.50;;;7.67;88.91
1472;BME280;963;42.644;23.336;2023-02-28T05:06:25;94699.78;;;7.70;88.91
1472;BME280;963;42.644;23.336;2023-02-28T05:08:51;94730.94;;;7.51;89.21
1472;BME280;963;42.644;23.336;2023-02-28T05:11:29;94721.53;;;7.50;89.84
1472;BME280;963;42.644;23.336;2023-02-28T05:14:03;94718.72;;;7.55;89.58
1472;BME280;963;42.644;23.336;2023-02-28T05:16:29;94708.94;;;7.64;88.79
1472;BME280;963;42.644;23.336;2023-02-28T05:18:54;94708.81;;;7.61;88.75
1472;BME280;963;42.644;23.336;2023-02-28T05:21:29;94722.00;;;7.64;88.60
1472;BME280;963;42.644;23.336;2023-02-28T05:23:57;94722.53;;;7.58;88.61
1472;BME280;963;42.644;23.336;2023-02-28T05:26:24;94728.00;;;7.65;88.81
1472;BME280;963;42.644;23.336;2023-02-28T05:28:49;94722.78;;;7.65;88.17
1472;BME280;963;42.644;23.336;2023-02-28T05:31:15;94740.56;;;7.71;88.84
1472;BME280;963;42.644;23.336;2023-02-28T05:33:40;94736.88;;;7.72;88.88
1472;BME280;963;42.644;23.336;2023-02-28T05:36:06;94740.47;;;7.68;88.51
1472;BME280;963;42.644;23.336;2023-02-28T05:38:32;94737.59;;;7.61;89.34
1472;BME280;963;42.644;23.336;2023-02-28T05:40:57;94737.31;;;7.74;89.21
1472;BME280;963;42.644;23.336;2023-02-28T05:43:23;94736.91;;;7.84;88.92
1472;BME280;963;42.644;23.336;2023-02-28T05:45:49;94743.28;;;7.96;88.53
1472;BME280;963;42.644;23.336;2023-02-28T05:48:14;94734.09;;;7.90;88.66
1472;BME280;963;42.644;23.336;2023-02-28T05:50:40;94744.78;;;7.97;87.52
1472;BME280;963;42.644;23.336;2023-02-28T05:53:06;94769.38;;;8.04;86.31
1472;BME280;963;42.644;23.336;2023-02-28T05:55:31;94755.19;;;8.05;87.61
1472;BME280;963;42.644;23.336;2023-02-28T05:57:56;94774.94;;;8.15;87.50
1472;BME280;963;42.644;23.336;2023-02-28T06:00:22;94740.88;;;8.15;86.94
1472;BME280;963;42.644;23.336;2023-02-28T06:02:48;94740.44;;;8.01;87.93
1472;BME280;963;42.644;23.336;2023-02-28T06:05:17;94753.00;;;8.07;87.61
1472;BME280;963;42.644;23.336;2023-02-28T06:07:43;94745.97;;;7.87;89.41
1472;BME280;963;42.644;23.336;2023-02-28T06:10:10;94749.84;;;8.14;87.75
1472;BME280;963;42.644;23.336;2023-02-28T06:12:36;94744.84;;;8.21;86.62
1472;BME280;963;42.644;23.336;2023-02-28T06:15:02;94741.59;;;8.36;86.14
1472;BME280;963;42.644;23.336;2023-02-28T06:17:28;94746.84;;;8.36;86.35
1472;BME280;963;42.644;23.336;2023-02-28T06:19:53;94728.94;;;8.38;85.32
1472;BME280;963;42.644;23.336;2023-02-28T06:22:19;94750.75;;;8.18;87.21
1472;BME280;963;42.644;23.336;2023-02-28T06:24:44;94750.91;;;8.01;88.05
1472;BME280;963;42.644;23.336;2023-02-28T06:27:10;94741.94;;;7.90;89.35
1472;BME280;963;42.644;23.336;2023-02-28T06:29:35;94747.94;;;8.35;86.44
1472;BME280;963;42.644;23.336;2023-02-28T06:32:01;94750.78;;;8.42;84.51
1472;BME280;963;42.644;23.336;2023-02-28T06:34:27;94760.97;;;8.11;87.96
1472;BME280;963;42.644;23.336;2023-02-28T06:36:52;94756.84;;;8.22;86.39
1472;BME280;963;42.644;23.336;2023-02-28T06:39:18;94767.09;;;8.15;86.97
1472;BME280;963;42.644;23.336;2023-02-28T06:41:44;94761.63;;;8.08;87.10
1472;BME280;963;42.644;23.336;2023-02-28T06:44:15;94766.69;;;8.25;88.05
1472;BME280;963;42.644;23.336;2023-02-28T06:46:42;94778.97;;;8.58;86.62
1472;BME280;963;42.644;23.336;2023-02-28T06:49:09;94793.63;;;8.71;85.50
1472;BME280;963;42.644;23.336;2023-02-28T06:51:36;94770.44;;;8.85;85.05
1472;BME280;963;42.644;23.336;2023-02-28T06:54:03;94773.84;;;8.98;83.59
1472;BME280;963;42.644;23.336;2023-02-28T06:56:28;94770.44;;;8.97;83.83
1472;BME280;963;42.644;23.336;2023-02-28T06:58:54;94777.44;;;9.05;83.55
1472;BME280;963;42.644;23.336;2023-02-28T07:01:19;94794.03;;;9.09;83.70
1472;BME280;963;42.644;23.336;2023-02-28T07:03:46;94769.75;;;9.13;83.21
1472;BME280;963;42.644;23.336;2023-02-28T07:06:12;94788.13;;;9.13;83.07
1472;BME280;963;42.644;23.336;2023-02-28T07:08:37;94783.75;;;9.17;83.48
1472;BME280;963;42.644;23.336;2023-02-28T07:11:03;94781.66;;;9.22;83.48
1472;BME280;963;42.644;23.336;2023-02-28T07:13:29;94768.84;;;9.33;83.02
1472;BME280;963;42.644;23.336;2023-02-28T07:16:03;94771.75;;;9.44;82.00
1472;BME280;963;42.644;23.336;2023-02-28T07:18:28;94737.00;;;9.34;81.67
1472;BME280;963;42.644;23.336;2023-02-28T07:20:54;94771.75;;;9.44;81.91
1472;BME280;963;42.644;23.336;2023-02-28T07:23:20;94772.06;;;9.54;81.75
1472;BME280;963;42.644;23.336;2023-02-28T07:25:46;94781.47;;;9.55;81.97
1472;BME280;963;42.644;23.336;2023-02-28T07:28:12;94761.94;;;9.40;82.21
1472;BME280;963;42.644;23.336;2023-02-28T07:30:38;94784.19;;;9.59;81.21
1472;BME280;963;42.644;23.336;2023-02-28T07:33:04;94785.16;;;9.66;81.51
1472;BME280;963;42.644;23.336;2023-02-28T07:35:30;94783.91;;;9.76;81.78
1472;BME280;963;42.644;23.336;2023-02-28T07:37:57;94783.00;;;9.84;80.17
1472;BME280;963;42.644;23.336;2023-02-28T07:40:23;94779.88;;;9.94;79.94
1472;BME280;963;42.644;23.336;2023-02-28T07:42:48;94766.75;;;9.94;79.68
1472;BME280;963;42.644;23.336;2023-02-28T07:45:14;94769.88;;;10.00;79.01
1472;BME280;963;42.644;23.336;2023-02-28T07:47:39;94767.22;;;9.84;79.37
1472;BME280;963;42.644;23.336;2023-02-28T07:50:07;94766.22;;;9.89;79.52
1472;BME280;963;42.644;23.336;2023-02-28T07:52:33;94777.16;;;9.91;79.12
1472;BME280;963;42.644;23.336;2023-02-28T07:54:58;94744.00;;;9.70;79.25
1472;BME280;963;42.644;23.336;2023-02-28T07:57:24;94770.81;;;9.92;79.11
1472;BME280;963;42.644;23.336;2023-02-28T07:59:50;94771.66;;;9.96;79.27
1472;BME280;963;42.644;23.336;2023-02-28T08:02:17;94780.81;;;10.02;79.12
1472;BME280;963;42.644;23.336;2023-02-28T08:04:43;94775.69;;;10.06;79.61
1472;BME280;963;42.644;23.336;2023-02-28T08:07:09;94761.53;;;10.10;79.65
1472;BME280;963;42.644;23.336;2023-02-28T08:09:38;94769.34;;;10.22;78.77
1472;BME280;963;42.644;23.336;2023-02-28T08:12:04;94776.22;;;10.27;78.16
1472;BME280;963;42.644;23.336;2023-02-28T08:14:29;94755.97;;;10.27;78.91
1472;BME280;963;42.644;23.336;2023-02-28T08:16:55;94771.66;;;10.40;78.70
1472;BME280;963;42.644;23.336;2023-02-28T08:19:20;94765.13;;;10.49;78.17
1472;BME280;963;42.644;23.336;2023-02-28T08:21:46;94760.22;;;10.48;78.59
1472;BME280;963;42.644;23.336;2023-02-28T08:24:11;94767.84;;;10.53;77.98
1472;BME280;963;42.644;23.336;2023-02-28T08:26:37;94776.41;;;10.50;78.03
1472;BME280;963;42.644;23.336;2023-02-28T08:29:02;94763.94;;;10.47;77.98
1472;BME280;963;42.644;23.336;2023-02-28T08:31:27;94767.59;;;10.58;77.64
1472;BME280;963;42.644;23.336;2023-02-28T08:33:53;94760.88;;;10.60;77.42
1472;BME280;963;42.644;23.336;2023-02-28T08:36:21;94783.88;;;10.63;77.69
1472;BME280;963;42.644;23.336;2023-02-28T08:38:46;94772.66;;;10.67;77.41
1472;BME280;963;42.644;23.336;2023-02-28T08:41:12;94777.94;;;10.67;76.91
1472;BME280;963;42.644;23.336;2023-02-28T08:43:39;94766.91;;;10.45;78.08
1472;BME280;963;42.644;23.336;2023-02-28T08:46:05;94771.41;;;10.45;78.30
1472;BME280;963;42.644;23.336;2023-02-28T08:48:33;94767.84;;;10.53;77.60
1472;BME280;963;42.644;23.336;2023-02-28T08:51:01;94766.47;;;10.59;77.77
1472;BME280;963;42.644;23.336;2023-02-28T08:53:27;94775.06;;;10.56;77.80
1472;BME280;963;42.644;23.336;2023-02-28T08:55:57;94780.22;;;10.52;78.42
1472;BME280;963;42.644;23.336;2023-02-28T08:58:23;94772.00;;;10.54;78.46
1472;BME280;963;42.644;23.336;2023-02-28T09:00:48;94773.09;;;10.53;77.99
1472;BME280;963;42.644;23.336;2023-02-28T09:03:14;94790.59;;;10.45;78.56
1472;BME280;963;42.644;23.336;2023-02-28T09:05:39;94779.34;;;9.89;80.58
1472;BME280;963;42.644;23.336;2023-02-28T09:08:04;94791.41;;;9.90;81.24
1472;BME280;963;42.644;23.336;2023-02-28T09:10:30;94796.13;;;10.12;80.13
1472;BME280;963;42.644;23.336;2023-02-28T09:12:55;94772.50;;;10.00;81.67
1472;BME280;963;42.644;23.336;2023-02-28T09:15:21;94756.84;;;10.03;81.04
1472;BME280;963;42.644;23.336;2023-02-28T09:17:46;94774.63;;;10.38;80.13
1472;BME280;963;42.644;23.336;2023-02-28T09:20:12;94780.31;;;10.56;79.27
1472;BME280;963;42.644;23.336;2023-02-28T09:22:37;94781.31;;;10.67;79.60
1472;BME280;963;42.644;23.336;2023-02-28T09:25:03;94773.78;;;10.81;nan
1472;BME280;963;42.644;23.336;2023-02-28T09:27:28;94771.88;;;10.98;78.95
1472;BME280;963;42.644;23.336;2023-02-28T09:29:54;94758.44;;;11.03;78.94
1472;BME280;963;42.644;23.336;2023-02-28T09:32:19;94763.81;;;11.25;78.78
1472;BME280;963;42.644;23.336;2023-02-28T09:34:45;94755.53;;;11.08;79.23
1472;BME280;963;42.644;23.336;2023-02-28T09:37:10;94769.66;;;11.35;78.45
1472;BME280;963;42.644;23.336;2023-02-28T09:39:35;94768.47;;;11.51;77.57
1472;BME280;963;42.644;23.336;2023-02-28T09:42:02;94760.31;;;11.56;77.46
1472;BME280;963;42.644;23.336;2023-02-28T09:44:29;94762.25;;;11.40;79.33
1472;BME280;963;42.644;23.336;2023-02-28T09:47:00;94748.03;;;11.45;78.87
1472;BME280;963;42.644;23.336;2023-02-28T09:49:40;94767.38;;;11.33;80.91
1472;BME280;963;42.644;23.336;2023-02-28T09:52:13;94757.09;;;11.47;79.31
1472;BME280;963;42.644;23.336;2023-02-28T09:54:41;94753.31;;;11.10;81.25
1472;BME280;963;42.644;23.336;2023-02-28T09:57:14;94756.13;;;11.36;79.02
1472;BME280;963;42.644;23.336;2023-02-28T10:00:18;94752.88;;;11.43;79.06
1472;BME280;963;42.644;23.336;2023-02-28T10:08:30;94738.53;;;11.21;76.96
1472;BME280;963;42.644;23.336;2023-02-28T10:11:00;94738.13;;;11.38;76.52
1472;BME280;963;42.644;23.336;2023-02-28T10:16:13;94740.06;;;11.61;77.08
1472;BME280;963;42.644;23.336;2023-02-28T10:18:43;94713.78;;;11.64;74.68
1472;BME280;963;42.644;23.336;2023-02-28T10:21:22;94733.97;;;11.56;76.06
1472;BME280;963;42.644;23.336;2023-02-28T10:27:24;94720.09;;;11.40;76.46
1472;BME280;963;42.644;23.336;2023-02-28T10:29:55;94739.19;;;11.53;77.47
1472;BME280;963;42.644;23.336;2023-02-28T10:32:34;94735.09;;;11.55;76.44
1472;BME280;963;42.644;23.336;2023-02-28T10:35:18;94718.56;;;11.78;77.00
1472;BME280;963;42.644;23.336;2023-02-28T10:37:49;94712.16;;;11.98;75.11
1472;BME280;963;42.644;23.336;2023-02-28T10:43:02;94694.88;;;12.24;73.93
1472;BME280;963;42.644;23.336;2023-02-28T10:45:30;94690.84;;;12.07;74.31
1472;BME280;963;42.644;23.336;2023-02-28T10:48:10;94692.69;;;12.52;73.79
1472;BME280;963;42.644;23.336;2023-02-28T10:56:14;94681.28;;;11.99;73.24
1472;BME280;963;42.644;23.336;2023-02-28T11:01:45;94676.78;;;12.48;72.45
1472;BME280;963;42.644;23.336;2023-02-28T11:06:57;94667.41;;;12.77;71.52
1472;BME280;963;42.644;23.336;2023-02-28T11:09:28;94660.81;;;12.38;72.54
1472;BME280;963;42.644;23.336;2023-02-28T11:11:55;94663.03;;;12.62;71.16
1472;BME280;963;42.644;23.336;2023-02-28T11:14:23;94656.31;;;12.95;69.29
1472;BME280;963;42.644;23.336;2023-02-28T11:16:50;94653.31;;;12.40;69.92
1472;BME280;963;42.644;23.336;2023-02-28T11:19:23;94667.72;;;12.72;70.20
1472;BME280;963;42.644;23.336;2023-02-28T11:22:00;94650.09;;;13.10;69.35
1472;BME280;963;42.644;23.336;2023-02-28T11:26:52;94644.31;;;13.68;68.15
1472;BME280;963;42.644;23.336;2023-02-28T11:29:29;94649.47;;;13.54;67.53
1472;BME280;963;42.644;23.336;2023-02-28T11:34:28;94671.13;;;13.03;68.53
1472;BME280;963;42.644;23.336;2023-02-28T11:36:55;94676.97;;;12.89;69.37
1472;BME280;963;42.644;23.336;2023-02-28T11:39:22;94645.34;;;13.23;68.47
1472;BME280;963;42.644;23.336;2023-02-28T11:44:43;94645.50;;;13.74;66.90
1472;BME280;963;42.644;23.336;2023-02-28T11:47:25;94650.09;;;13.40;68.21
1472;BME280;963;42.644;23.336;2023-02-28T11:50:52;94648.75;;;12.93;67.69
1472;BME280;963;42.644;23.336;2023-02-28T11:52:56;94643.03;;;12.88;66.34
1472;BME280;963;42.644;23.336;2023-02-28T11:55:35;94657.66;;;12.55;67.05
1472;BME280;963;42.644;23.336;2023-02-28T11:58:22;94609.25;;;12.44;67.49
1472;BME280;963;42.644;23.336;2023-02-28T12:01:15;94646.81;;;12.90;67.44
1472;BME280;963;42.644;23.336;2023-02-28T12:09:18;94640.66;;;12.52;69.30
1472;BME280;963;42.644;23.336;2023-02-28T12:11:53;94641.94;;;12.36;68.87
1472;BME280;963;42.644;23.336;2023-02-28T12:19:59;94646.41;;;11.86;70.36
1472;BME280;963;42.644;23.336;2023-02-28T12:22:30;94638.25;;;11.72;70.87
1472;BME280;963;42.644;23.336;2023-02-28T12:27:48;94635.41;;;12.03;70.79
1472;BME280;963;42.644;23.336;2023-02-28T12:30:31;94635.94;;;12.12;68.86
1472;BME280;963;42.644;23.336;2023-02-28T12:33:12;94646.72;;;11.81;70.02
1472;BME280;963;42.644;23.336;2023-02-28T12:38:34;94645.34;;;12.36;70.94
1472;BME280;963;42.644;23.336;2023-02-28T12:41:05;94625.09;;;12.70;69.99
1472;BME280;963;42.644;23.336;2023-02-28T12:43:40;94628.06;;;12.16;71.11
1472;BME280;963;42.644;23.336;2023-02-28T12:46:12;94654.75;;;12.11;72.61
1472;BME280;963;42.644;23.336;2023-02-28T12:48:49;94627.53;;;12.30;71.06
1472;BME280;963;42.644;23.336;2023-02-28T12:51:16;94634.50;;;12.18;71.94
1472;BME280;963;42.644;23.336;2023-02-28T12:54:08;94643.09;;;12.38;71.10
1472;BME280;963;42.644;23.336;2023-02-28T13:04:31;94631.88;;;13.01;68.28
1472;BME280;963;42.644;23.336;2023-02-28T13:09:30;94635.63;;;13.30;67.57
1472;BME280;963;42.644;23.336;2023-02-28T13:11:56;94626.41;;;12.87;68.07
1472;BME280;963;42.644;23.336;2023-02-28T13:14:27;94639.22;;;12.59;69.62
1472;BME280;963;42.644;23.336;2023-02-28T13:19:32;94630.00;;;12.72;67.06
1472;BME280;963;42.644;23.336;2023-02-28T13:21:58;94634.56;;;12.48;67.71
1472;BME280;963;42.644;23.336;2023-02-28T13:34:34;94627.78;;;11.52;70.11
1472;BME280;963;42.644;23.336;2023-02-28T13:37:44;94622.56;;;11.56;70.00
1472;BME280;963;42.644;23.336;2023-02-28T13:42:36;94618.94;;;11.64;69.86
1472;BME280;963;42.644;23.336;2023-02-28T13:47:44;94607.25;;;11.42;70.19
1472;BME280;963;42.644;23.336;2023-02-28T14:06:47;94593.13;;;10.89;73.45
1472;BME280;963;42.644;23.336;2023-02-28T14:11:43;94614.97;;;10.74;75.16
1472;BME280;963;42.644;23.336;2023-02-28T14:14:27;94603.69;;;10.73;74.92
1472;BME280;963;42.644;23.336;2023-02-28T14:16:55;94600.63;;;10.71;75.10
1472;BME280;963;42.644;23.336;2023-02-28T14:19:30;94634.00;;;10.67;75.39
1472;BME280;963;42.644;23.336;2023-02-28T14:27:47;94615.31;;;10.53;76.97
1472;BME280;963;42.644;23.336;2023-02-28T14:33:25;94619.41;;;10.34;77.65
1472;BME280;963;42.644;23.336;2023-02-28T14:38:24;94630.53;;;10.28;78.41
1472;BME280;963;42.644;23.336;2023-02-28T14:40:52;94601.97;;;10.11;78.18
1472;BME280;963;42.644;23.336;2023-02-28T14:43:27;94609.09;;;10.10;79.03
1472;BME280;963;42.644;23.336;2023-02-28T14:45:56;94616.44;;;10.36;78.29
1472;BME280;963;42.644;23.336;2023-02-28T14:48:23;94616.50;;;10.40;78.08
1472;BME280;963;42.644;23.336;2023-02-28T14:50:53;94608.47;;;10.32;78.28
1472;BME280;963;42.644;23.336;2023-02-28T14:53:21;94620.84;;;10.16;79.46
1472;BME280;963;42.644;23.336;2023-02-28T14:55:48;94645.88;;;10.42;78.77
1472;BME280;963;42.644;23.336;2023-02-28T14:58:27;94623.63;;;10.39;78.91
1472;BME280;963;42.644;23.336;2023-02-28T15:00:56;94602.28;;;10.25;79.24
1472;BME280;963;42.644;23.336;2023-02-28T15:03:35;94611.63;;;10.22;79.71
1472;BME280;963;42.644;23.336;2023-02-28T15:06:06;94621.19;;;10.30;79.29
1472;BME280;963;42.644;23.336;2023-02-28T15:08:37;94605.69;;;10.10;80.12
1472;BME280;963;42.644;23.336;2023-02-28T15:11:23;94611.78;;;9.98;81.33
1472;BME280;963;42.644;23.336;2023-02-28T15:13:52;94613.38;;;10.18;80.44
1472;BME280;963;42.644;23.336;2023-02-28T15:16:23;94608.91;;;10.03;80.58
1472;BME280;963;42.644;23.336;2023-02-28T15:19:12;94594.34;;;9.58;82.82
1472;BME280;963;42.644;23.336;2023-02-28T15:21:43;94616.56;;;9.77;82.34
1472;BME280;963;42.644;23.336;2023-02-28T15:24:18;94617.97;;;9.58;83.00
1472;BME280;963;42.644;23.336;2023-02-28T15:26:53;94604.66;;;9.51;82.71
1472;BME280;963;42.644;23.336;2023-02-28T15:29:22;94629.50;;;9.54;83.31
1472;BME280;963;42.644;23.336;2023-02-28T15:31:51;94641.44;;;9.51;84.21
1472;BME280;963;42.644;23.336;2023-02-28T15:34:38;94639.91;;;9.66;83.32
1472;BME280;963;42.644;23.336;2023-02-28T15:37:29;94622.22;;;9.63;82.93
1472;BME280;963;42.644;23.336;2023-02-28T15:39:57;94637.16;;;9.75;82.72
1472;BME280;963;42.644;23.336;2023-02-28T15:42:28;94621.19;;;9.99;81.59
1472;BME280;963;42.644;23.336;2023-02-28T15:44:54;94636.47;;;10.09;81.01
1472;BME280;963;42.644;23.336;2023-02-28T15:47:21;94615.03;;;9.76;82.03
1472;BME280;963;42.644;23.336;2023-02-28T15:49:54;94650.63;;;9.89;81.84
1472;BME280;963;42.644;23.336;2023-02-28T15:52:40;94613.13;;;9.45;83.04
1472;BME280;963;42.644;23.336;2023-02-28T15:57:45;94613.31;;;9.36;84.46
1472;BME280;963;42.644;23.336;2023-02-28T16:00:19;94634.22;;;9.32;84.49
1472;BME280;963;42.644;23.336;2023-02-28T16:02:45;94641.13;;;9.25;84.74
1472;BME280;963;42.644;23.336;2023-02-28T16:07:40;94620.28;;;9.16;85.27